sensor_id;sensor_type;location;lat;lon;timestamp;pressure;altitude;pressure_sealevel;temperature;humidity
66560;BME280;53413;49.878;8.142;2022-09-09T00:00:20;99425.50;;;21.99;58.92
66560;BME280;53413;49.878;8.142;2022-09-09T00:08:19;99419.25;;;21.71;59.90
66560;BME280;53413;49.878;8.142;2022-09-09T00:10:48;99421.00;;;21.62;60.03
66560;BME280;53413;49.878;8.142;2022-09-09T00:13:38;99414.66;;;21.53;60.30
66560;BME280;53413;49.878;8.142;2022-09-09T00:16:22;99426.31;;;21.43;60.34
66560;BME280;53413;49.878;8.142;2022-09-09T00:24:42;99423.84;;;21.21;60.65
66560;BME280;53413;49.878;8.142;2022-09-09T00:32:45;99428.19;;;20.83;60.83
66560;BME280;53413;49.878;8.142;2022-09-09T00:37:44;99422.44;;;20.78;60.79
66560;BME280;53413;49.878;8.142;2022-09-09T00:40:26;99423.56;;;20.75;60.82
66560;BME280;53413;49.878;8.142;2022-09-09T00:43:16;99414.28;;;20.70;60.99
66560;BME280;53413;49.878;8.142;2022-09-09T00:48:37;99413.72;;;20.66;60.70
66560;BME280;53413;49.878;8.142;2022-09-09T00:51:15;99417.63;;;20.62;61.01
66560;BME280;53413;49.878;8.142;2022-09-09T00:56:37;99416.38;;;20.66;60.93
66560;BME280;53413;49.878;8.142;2022-09-09T01:01:36;99419.47;;;20.61;60.88
66560;BME280;53413;49.878;8.142;2022-09-09T01:04:05;99419.31;;;20.63;60.82
66560;BME280;53413;49.878;8.142;2022-09-09T01:06:35;99414.16;;;20.61;61.02
66560;BME280;53413;49.878;8.142;2022-09-09T01:17:14;99401.38;;;20.55;61.63
66560;BME280;53413;49.878;8.142;2022-09-09T01:27:33;99407.66;;;20.54;61.31
66560;BME280;53413;49.878;8.142;2022-09-09T01:30:00;99398.97;;;20.52;61.15
66560;BME280;53413;49.878;8.142;2022-09-09T01:32:42;99406.13;;;20.52;61.02
66560;BME280;53413;49.878;8.142;2022-09-09T01:35:15;99394.50;;;20.53;61.14
66560;BME280;53413;49.878;8.142;2022-09-09T01:37:45;99406.69;;;20.55;61.07
66560;BME280;53413;49.878;8.142;2022-09-09T01:40:11;99411.72;;;20.49;61.25
66560;BME280;53413;49.878;8.142;2022-09-09T01:42:36;99400.25;;;20.48;61.42
66560;BME280;53413;49.878;8.142;2022-09-09T01:45:02;99406.97;;;20.42;61.20
66560;BME280;53413;49.878;8.142;2022-09-09T01:47:29;99408.34;;;20.37;61.38
66560;BME280;53413;49.878;8.142;2022-09-09T01:49:54;99411.13;;;20.35;61.51
66560;BME280;53413;49.878;8.142;2022-09-09T01:52:19;99407.66;;;20.35;61.66
66560;BME280;53413;49.878;8.142;2022-09-09T01:54:45;99412.56;;;20.39;61.50
66560;BME280;53413;49.878;8.142;2022-09-09T01:57:50;99413.13;;;20.43;61.49
66560;BME280;53413;49.878;8.142;2022-09-09T02:00:21;99419.41;;;20.42;61.58
66560;BME280;53413;49.878;8.142;2022-09-09T02:08:05;99415.38;;;20.57;60.65
66560;BME280;53413;49.878;8.142;2022-09-09T02:13:12;99420.28;;;20.52;60.79
66560;BME280;53413;49.878;8.142;2022-09-09T02:16:03;99410.91;;;20.48;60.87
66560;BME280;53413;49.878;8.142;2022-09-09T02:18:35;99411.16;;;20.45;61.27
66560;BME280;53413;49.878;8.142;2022-09-09T02:21:02;99410.59;;;20.51;61.04
66560;BME280;53413;49.878;8.142;2022-09-09T02:23:28;99408.94;;;20.50;61.13
66560;BME280;53413;49.878;8.142;2022-09-09T02:25:55;99400.66;;;20.53;61.40
66560;BME280;53413;49.878;8.142;2022-09-09T02:28:23;99411.63;;;20.70;61.06
66560;BME280;53413;49.878;8.142;2022-09-09T02:30:51;99407.41;;;20.57;61.34
66560;BME280;53413;49.878;8.142;2022-09-09T02:33:23;99406.53;;;20.57;61.26
66560;BME280;53413;49.878;8.142;2022-09-09T02:35:51;99409.06;;;20.49;62.28
66560;BME280;53413;49.878;8.142;2022-09-09T02:38:19;99403.75;;;20.49;62.20
66560;BME280;53413;49.878;8.142;2022-09-09T02:40:46;99405.84;;;20.45;62.36
66560;BME280;53413;49.878;8.142;2022-09-09T02:43:14;99403.63;;;20.50;62.04
66560;BME280;53413;49.878;8.142;2022-09-09T02:45:47;99400.25;;;20.58;61.74
66560;BME280;53413;49.878;8.142;2022-09-09T02:53:28;99391.59;;;20.56;62.12
66560;BME280;53413;49.878;8.142;2022-09-09T02:56:04;99392.00;;;20.61;62.11
66560;BME280;53413;49.878;8.142;2022-09-09T02:58:31;99392.28;;;20.68;61.79
66560;BME280;53413;49.878;8.142;2022-09-09T03:00:57;99395.22;;;20.65;62.09
66560;BME280;53413;49.878;8.142;2022-09-09T03:03:23;99390.59;;;20.67;61.75
66560;BME280;53413;49.878;8.142;2022-09-09T03:05:48;99389.63;;;20.68;61.75
66560;BME280;53413;49.878;8.142;2022-09-09T03:08:15;99397.03;;;20.64;61.64
66560;BME280;53413;49.878;8.142;2022-09-09T03:10:41;99388.22;;;20.54;61.57
66560;BME280;53413;49.878;8.142;2022-09-09T03:13:06;99401.06;;;20.49;62.00
66560;BME280;53413;49.878;8.142;2022-09-09T03:15:33;99398.84;;;20.44;61.86
66560;BME280;53413;49.878;8.142;2022-09-09T03:18:00;99400.06;;;20.40;61.86
66560;BME280;53413;49.878;8.142;2022-09-09T03:20:27;99404.44;;;20.51;61.70
66560;BME280;53413;49.878;8.142;2022-09-09T03:22:53;99411.13;;;20.35;62.14
66560;BME280;53413;49.878;8.142;2022-09-09T03:25:19;99411.31;;;20.43;62.00
66560;BME280;53413;49.878;8.142;2022-09-09T03:27:44;99413.81;;;20.45;61.70
66560;BME280;53413;49.878;8.142;2022-09-09T03:30:10;99411.44;;;20.42;62.09
66560;BME280;53413;49.878;8.142;2022-09-09T03:32:36;99412.41;;;20.41;62.17
66560;BME280;53413;49.878;8.142;2022-09-09T03:35:01;99404.44;;;20.41;62.12
66560;BME280;53413;49.878;8.142;2022-09-09T03:37:27;99406.00;;;20.43;62.02
66560;BME280;53413;49.878;8.142;2022-09-09T03:39:52;99406.97;;;20.52;61.79
66560;BME280;53413;49.878;8.142;2022-09-09T03:42:20;99413.97;;;20.53;61.99
66560;BME280;53413;49.878;8.142;2022-09-09T03:44:47;99413.84;;;20.65;61.78
66560;BME280;53413;49.878;8.142;2022-09-09T03:47:16;99418.38;;;20.74;61.39
66560;BME280;53413;49.878;8.142;2022-09-09T03:49:42;99404.22;;;20.83;61.31
66560;BME280;53413;49.878;8.142;2022-09-09T03:52:09;99403.97;;;20.86;61.27
66560;BME280;53413;49.878;8.142;2022-09-09T03:54:34;99402.25;;;20.95;61.20
66560;BME280;53413;49.878;8.142;2022-09-09T03:57:01;99405.06;;;20.94;61.31
66560;BME280;53413;49.878;8.142;2022-09-09T03:59:26;99405.34;;;21.00;61.23
66560;BME280;53413;49.878;8.142;2022-09-09T04:01:52;99396.06;;;21.24;60.72
66560;BME280;53413;49.878;8.142;2022-09-09T04:04:18;99392.53;;;21.43;60.24
66560;BME280;53413;49.878;8.142;2022-09-09T04:06:45;99384.47;;;21.53;60.03
66560;BME280;53413;49.878;8.142;2022-09-09T04:09:11;99390.66;;;21.53;59.83
66560;BME280;53413;49.878;8.142;2022-09-09T04:11:36;99389.66;;;21.74;59.60
66560;BME280;53413;49.878;8.142;2022-09-09T04:14:02;99394.41;;;21.80;58.95
66560;BME280;53413;49.878;8.142;2022-09-09T04:16:27;99388.09;;;21.81;59.12
66560;BME280;53413;49.878;8.142;2022-09-09T04:18:53;99393.09;;;21.84;59.11
66560;BME280;53413;49.878;8.142;2022-09-09T04:21:18;99393.53;;;21.90;58.92
66560;BME280;53413;49.878;8.142;2022-09-09T04:23:44;99391.28;;;21.85;59.04
66560;BME280;53413;49.878;8.142;2022-09-09T04:26:09;99393.09;;;21.84;59.17
66560;BME280;53413;49.878;8.142;2022-09-09T04:28:36;99391.19;;;21.77;59.06
66560;BME280;53413;49.878;8.142;2022-09-09T04:31:19;99398.53;;;21.65;59.33
66560;BME280;53413;49.878;8.142;2022-09-09T04:33:46;99403.03;;;21.55;59.55
66560;BME280;53413;49.878;8.142;2022-09-09T04:36:12;99404.19;;;21.32;60.17
66560;BME280;53413;49.878;8.142;2022-09-09T04:38:37;99407.88;;;21.21;60.36
66560;BME280;53413;49.878;8.142;2022-09-09T04:41:03;99407.28;;;21.18;60.46
66560;BME280;53413;49.878;8.142;2022-09-09T04:43:28;99418.25;;;21.05;60.67
66560;BME280;53413;49.878;8.142;2022-09-09T04:45:55;99420.19;;;21.03;60.71
66560;BME280;53413;49.878;8.142;2022-09-09T04:48:21;99418.81;;;20.99;60.84
66560;BME280;53413;49.878;8.142;2022-09-09T04:53:05;99429.72;;;20.86;61.15
66560;BME280;53413;49.878;8.142;2022-09-09T04:55:31;99433.53;;;20.83;61.25
66560;BME280;53413;49.878;8.142;2022-09-09T04:57:57;99430.44;;;20.88;61.06
66560;BME280;53413;49.878;8.142;2022-09-09T05:00:24;99433.78;;;21.00;60.86
66560;BME280;53413;49.878;8.142;2022-09-09T05:02:49;99426.66;;;21.10;60.42
66560;BME280;53413;49.878;8.142;2022-09-09T05:05:16;99432.28;;;21.17;60.38
66560;BME280;53413;49.878;8.142;2022-09-09T05:07:41;99433.94;;;21.18;60.53
66560;BME280;53413;49.878;8.142;2022-09-09T05:10:08;99439.25;;;21.28;60.20
66560;BME280;53413;49.878;8.142;2022-09-09T05:12:35;99446.00;;;21.22;60.21
66560;BME280;53413;49.878;8.142;2022-09-09T05:15:00;99438.56;;;21.26;60.40
66560;BME280;53413;49.878;8.142;2022-09-09T05:17:25;99436.31;;;21.31;60.43
66560;BME280;53413;49.878;8.142;2022-09-09T05:19:51;99441.50;;;21.32;60.53
66560;BME280;53413;49.878;8.142;2022-09-09T05:22:20;99437.84;;;21.43;60.22
66560;BME280;53413;49.878;8.142;2022-09-09T05:24:46;99433.03;;;21.57;60.01
66560;BME280;53413;49.878;8.142;2022-09-09T05:27:11;99443.41;;;21.70;59.65
66560;BME280;53413;49.878;8.142;2022-09-09T05:29:37;99440.44;;;21.82;59.16
66560;BME280;53413;49.878;8.142;2022-09-09T05:32:03;99436.91;;;21.82;59.00
66560;BME280;53413;49.878;8.142;2022-09-09T05:34:29;99444.19;;;21.90;58.54
66560;BME280;53413;49.878;8.142;2022-09-09T05:36:54;99440.28;;;21.84;58.52
66560;BME280;53413;49.878;8.142;2022-09-09T05:39:20;99439.16;;;21.87;58.48
66560;BME280;53413;49.878;8.142;2022-09-09T05:41:45;99440.94;;;21.96;58.52
66560;BME280;53413;49.878;8.142;2022-09-09T05:44:11;99439.56;;;22.20;58.03
66560;BME280;53413;49.878;8.142;2022-09-09T05:46:36;99440.38;;;22.30;57.65
66560;BME280;53413;49.878;8.142;2022-09-09T05:49:02;99442.34;;;22.28;57.61
66560;BME280;53413;49.878;8.142;2022-09-09T05:51:28;99448.38;;;22.30;57.84
66560;BME280;53413;49.878;8.142;2022-09-09T05:53:55;99443.97;;;22.39;57.44
66560;BME280;53413;49.878;8.142;2022-09-09T05:56:26;99443.91;;;22.58;57.29
66560;BME280;53413;49.878;8.142;2022-09-09T05:58:52;99450.72;;;22.89;56.41
66560;BME280;53413;49.878;8.142;2022-09-09T06:01:24;99464.56;;;23.20;55.57
66560;BME280;53413;49.878;8.142;2022-09-09T06:03:50;99464.78;;;23.27;55.24
66560;BME280;53413;49.878;8.142;2022-09-09T06:06:18;99460.06;;;23.47;54.59
66560;BME280;53413;49.878;8.142;2022-09-09T06:08:49;99457.91;;;23.69;54.16
66560;BME280;53413;49.878;8.142;2022-09-09T06:11:18;99463.19;;;23.87;53.75
66560;BME280;53413;49.878;8.142;2022-09-09T06:13:44;99459.59;;;24.39;52.71
66560;BME280;53413;49.878;8.142;2022-09-09T06:16:13;99465.63;;;25.09;51.48
66560;BME280;53413;49.878;8.142;2022-09-09T06:18:39;99471.69;;;25.28;50.72
66560;BME280;53413;49.878;8.142;2022-09-09T06:21:08;99475.38;;;25.51;50.53
66560;BME280;53413;49.878;8.142;2022-09-09T06:23:34;99462.25;;;25.81;49.54
66560;BME280;53413;49.878;8.142;2022-09-09T06:26:07;99464.25;;;25.88;48.73
66560;BME280;53413;49.878;8.142;2022-09-09T06:28:33;99460.34;;;25.98;48.88
66560;BME280;53413;49.878;8.142;2022-09-09T06:31:04;99456.13;;;26.04;48.76
66560;BME280;53413;49.878;8.142;2022-09-09T06:33:38;99451.81;;;25.95;48.73
66560;BME280;53413;49.878;8.142;2022-09-09T06:36:17;99446.66;;;26.33;47.53
66560;BME280;53413;49.878;8.142;2022-09-09T06:38:44;99455.78;;;26.07;48.21
66560;BME280;53413;49.878;8.142;2022-09-09T06:41:10;99461.59;;;25.79;49.00
66560;BME280;53413;49.878;8.142;2022-09-09T06:43:37;99467.00;;;25.63;49.65
66560;BME280;53413;49.878;8.142;2022-09-09T06:46:06;99476.41;;;25.42;50.36
66560;BME280;53413;49.878;8.142;2022-09-09T06:48:33;99468.31;;;25.34;50.06
66560;BME280;53413;49.878;8.142;2022-09-09T06:51:19;99467.63;;;25.32;50.09
66560;BME280;53413;49.878;8.142;2022-09-09T06:53:52;99464.94;;;25.32;49.96
66560;BME280;53413;49.878;8.142;2022-09-09T06:56:30;99470.34;;;25.40;50.06
66560;BME280;53413;49.878;8.142;2022-09-09T06:58:58;99459.47;;;28.46;44.28
66560;BME280;53413;49.878;8.142;2022-09-09T07:01:29;99453.38;;;31.73;37.59
66560;BME280;53413;49.878;8.142;2022-09-09T07:03:56;99457.22;;;33.53;35.22
66560;BME280;53413;49.878;8.142;2022-09-09T07:06:25;99464.25;;;34.42;33.20
66560;BME280;53413;49.878;8.142;2022-09-09T07:08:53;99471.00;;;34.70;33.07
66560;BME280;53413;49.878;8.142;2022-09-09T07:11:20;99472.09;;;34.50;32.95
66560;BME280;53413;49.878;8.142;2022-09-09T07:13:46;99476.22;;;33.27;34.40
66560;BME280;53413;49.878;8.142;2022-09-09T07:16:14;99482.66;;;32.03;36.11
66560;BME280;53413;49.878;8.142;2022-09-09T07:18:40;99486.31;;;30.54;38.25
66560;BME280;53413;49.878;8.142;2022-09-09T07:21:07;99488.34;;;29.75;39.49
66560;BME280;53413;49.878;8.142;2022-09-09T07:23:33;99479.41;;;31.34;37.21
66560;BME280;53413;49.878;8.142;2022-09-09T07:26:01;99478.91;;;33.02;34.72
66560;BME280;53413;49.878;8.142;2022-09-09T07:28:26;99483.06;;;33.87;33.29
66560;BME280;53413;49.878;8.142;2022-09-09T07:30:58;99479.97;;;35.67;30.97
66560;BME280;53413;49.878;8.142;2022-09-09T07:33:25;99483.16;;;36.40;29.90
66560;BME280;53413;49.878;8.142;2022-09-09T07:35:51;99479.59;;;36.51;28.95
66560;BME280;53413;49.878;8.142;2022-09-09T07:38:18;99490.16;;;34.07;32.15
66560;BME280;53413;49.878;8.142;2022-09-09T07:40:44;99482.41;;;32.25;34.56
66560;BME280;53413;49.878;8.142;2022-09-09T07:43:10;99480.56;;;32.26;34.95
66560;BME280;53413;49.878;8.142;2022-09-09T07:45:36;99493.22;;;34.66;31.39
66560;BME280;53413;49.878;8.142;2022-09-09T07:48:02;99484.66;;;37.52;28.32
66560;BME280;53413;49.878;8.142;2022-09-09T07:50:28;99488.72;;;37.49;27.90
66560;BME280;53413;49.878;8.142;2022-09-09T07:52:54;99490.00;;;34.88;30.72
66560;BME280;53413;49.878;8.142;2022-09-09T07:55:22;99487.53;;;32.53;34.02
66560;BME280;53413;49.878;8.142;2022-09-09T07:57:51;99492.09;;;31.40;36.08
66560;BME280;53413;49.878;8.142;2022-09-09T08:00:16;99496.63;;;32.00;35.23
66560;BME280;53413;49.878;8.142;2022-09-09T08:02:42;99491.66;;;32.63;34.23
66560;BME280;53413;49.878;8.142;2022-09-09T08:05:07;99498.94;;;34.77;31.84
66560;BME280;53413;49.878;8.142;2022-09-09T08:07:33;99508.16;;;34.27;31.74
66560;BME280;53413;49.878;8.142;2022-09-09T08:09:58;99501.28;;;33.29;33.29
66560;BME280;53413;49.878;8.142;2022-09-09T08:12:23;99505.91;;;32.97;33.91
66560;BME280;53413;49.878;8.142;2022-09-09T08:14:49;99503.38;;;33.34;33.23
66560;BME280;53413;49.878;8.142;2022-09-09T08:17:14;99505.78;;;32.13;35.12
66560;BME280;53413;49.878;8.142;2022-09-09T08:19:40;99500.56;;;30.90;36.75
66560;BME280;53413;49.878;8.142;2022-09-09T08:22:05;99499.22;;;30.59;37.91
66560;BME280;53413;49.878;8.142;2022-09-09T08:24:30;99501.47;;;31.91;36.26
66560;BME280;53413;49.878;8.142;2022-09-09T08:26:56;99502.19;;;33.74;32.97
66560;BME280;53413;49.878;8.142;2022-09-09T08:29:22;99504.75;;;33.11;33.73
66560;BME280;53413;49.878;8.142;2022-09-09T08:31:50;99506.63;;;32.13;35.23
66560;BME280;53413;49.878;8.142;2022-09-09T08:34:17;99505.59;;;31.07;35.81
66560;BME280;53413;49.878;8.142;2022-09-09T08:36:46;99508.97;;;30.12;37.80
66560;BME280;53413;49.878;8.142;2022-09-09T08:39:14;99504.66;;;29.67;38.24
66560;BME280;53413;49.878;8.142;2022-09-09T08:53:05;99516.13;;;41.69;23.33
66560;BME280;53413;49.878;8.142;2022-09-09T08:55:54;99518.97;;;37.31;26.62
66560;BME280;53413;49.878;8.142;2022-09-09T09:11:45;99510.38;;;33.49;32.09
66560;BME280;53413;49.878;8.142;2022-09-09T09:14:24;99506.44;;;32.67;32.80
66560;BME280;53413;49.878;8.142;2022-09-09T09:16:56;99504.25;;;33.21;32.77
66560;BME280;53413;49.878;8.142;2022-09-09T09:19:23;99506.56;;;32.92;32.75
66560;BME280;53413;49.878;8.142;2022-09-09T09:24:43;99501.41;;;35.63;28.54
66560;BME280;53413;49.878;8.142;2022-09-09T09:27:15;99502.28;;;37.44;27.12
66560;BME280;53413;49.878;8.142;2022-09-09T09:29:41;99511.69;;;38.49;24.79
66560;BME280;53413;49.878;8.142;2022-09-09T09:32:11;99505.34;;;38.93;24.60
66560;BME280;53413;49.878;8.142;2022-09-09T09:34:38;99512.25;;;39.28;24.47
66560;BME280;53413;49.878;8.142;2022-09-09T09:37:15;99494.69;;;39.62;23.83
66560;BME280;53413;49.878;8.142;2022-09-09T09:39:42;99497.09;;;39.96;23.03
66560;BME280;53413;49.878;8.142;2022-09-09T09:42:17;99502.41;;;39.05;24.23
66560;BME280;53413;49.878;8.142;2022-09-09T09:44:43;99511.81;;;38.59;24.62
66560;BME280;53413;49.878;8.142;2022-09-09T09:47:19;99511.19;;;38.79;25.43
66560;BME280;53413;49.878;8.142;2022-09-09T09:49:58;99506.63;;;39.45;23.57
66560;BME280;53413;49.878;8.142;2022-09-09T09:52:29;99513.19;;;38.84;23.95
66560;BME280;53413;49.878;8.142;2022-09-09T09:54:56;99491.78;;;37.53;25.69
66560;BME280;53413;49.878;8.142;2022-09-09T09:57:31;99492.69;;;36.38;27.49
66560;BME280;53413;49.878;8.142;2022-09-09T10:02:45;99492.69;;;35.19;28.16
66560;BME280;53413;49.878;8.142;2022-09-09T10:05:22;99490.81;;;34.58;29.18
66560;BME280;53413;49.878;8.142;2022-09-09T10:08:02;99491.00;;;34.45;30.23
66560;BME280;53413;49.878;8.142;2022-09-09T10:19:01;99486.25;;;33.02;31.27
66560;BME280;53413;49.878;8.142;2022-09-09T10:29:58;99475.28;;;33.15;32.26
66560;BME280;53413;49.878;8.142;2022-09-09T10:32:36;99473.59;;;33.46;31.54
66560;BME280;53413;49.878;8.142;2022-09-09T10:52:14;99474.47;;;32.37;32.90
66560;BME280;53413;49.878;8.142;2022-09-09T10:54:56;99469.13;;;32.03;33.43
66560;BME280;53413;49.878;8.142;2022-09-09T10:57:28;99470.88;;;31.24;34.11
66560;BME280;53413;49.878;8.142;2022-09-09T11:00:04;99466.00;;;30.85;34.19
66560;BME280;53413;49.878;8.142;2022-09-09T11:02:32;99467.75;;;31.13;34.40
66560;BME280;53413;49.878;8.142;2022-09-09T11:05:05;99476.69;;;31.68;34.53
66560;BME280;53413;49.878;8.142;2022-09-09T11:12:49;99470.09;;;32.22;33.56
66560;BME280;53413;49.878;8.142;2022-09-09T11:15:20;99473.13;;;31.87;32.66
66560;BME280;53413;49.878;8.142;2022-09-09T11:18:01;99463.97;;;31.55;33.54
66560;BME280;53413;49.878;8.142;2022-09-09T11:20:26;99458.59;;;31.21;34.50
66560;BME280;53413;49.878;8.142;2022-09-09T11:23:11;99453.97;;;31.08;34.79
66560;BME280;53413;49.878;8.142;2022-09-09T11:25:41;99455.03;;;31.21;34.59
66560;BME280;53413;49.878;8.142;2022-09-09T11:41:39;99454.06;;;33.05;30.08
66560;BME280;53413;49.878;8.142;2022-09-09T11:44:12;99466.91;;;31.87;32.03
66560;BME280;53413;49.878;8.142;2022-09-09T11:46:39;99454.56;;;30.90;33.34
66560;BME280;53413;49.878;8.142;2022-09-09T11:51:51;99477.16;;;30.14;35.03
66560;BME280;53413;49.878;8.142;2022-09-09T11:54:46;99479.69;;;29.87;35.32
66560;BME280;53413;49.878;8.142;2022-09-09T11:57:30;99495.06;;;29.58;37.95
66560;BME280;53413;49.878;8.142;2022-09-09T11:59:57;99493.13;;;29.08;38.94
66560;BME280;53413;49.878;8.142;2022-09-09T12:02:27;99494.28;;;28.99;40.19
66560;BME280;53413;49.878;8.142;2022-09-09T12:07:45;99497.16;;;28.61;41.62
66560;BME280;53413;49.878;8.142;2022-09-09T12:10:27;99501.59;;;28.32;42.21
66560;BME280;53413;49.878;8.142;2022-09-09T12:12:54;99502.75;;;27.99;44.19
66560;BME280;53413;49.878;8.142;2022-09-09T12:15:28;99507.31;;;27.45;46.87
66560;BME280;53413;49.878;8.142;2022-09-09T12:17:56;99508.25;;;26.74;48.33
66560;BME280;53413;49.878;8.142;2022-09-09T12:20:23;99506.50;;;26.10;50.20
66560;BME280;53413;49.878;8.142;2022-09-09T12:31:23;99496.72;;;24.69;49.60
66560;BME280;53413;49.878;8.142;2022-09-09T12:33:50;99494.03;;;24.69;49.84
66560;BME280;53413;49.878;8.142;2022-09-09T12:36:38;99498.19;;;24.63;50.92
66560;BME280;53413;49.878;8.142;2022-09-09T12:39:37;99493.75;;;24.97;50.32
66560;BME280;53413;49.878;8.142;2022-09-09T12:42:04;99494.31;;;25.50;49.34
66560;BME280;53413;49.878;8.142;2022-09-09T12:44:29;99486.50;;;26.05;47.72
66560;BME280;53413;49.878;8.142;2022-09-09T12:46:58;99480.84;;;26.48;47.15
66560;BME280;53413;49.878;8.142;2022-09-09T12:49:34;99487.25;;;26.78;46.95
66560;BME280;53413;49.878;8.142;2022-09-09T12:52:07;99492.13;;;27.06;44.80
66560;BME280;53413;49.878;8.142;2022-09-09T12:54:36;99478.50;;;27.08;43.41
66560;BME280;53413;49.878;8.142;2022-09-09T12:57:03;99482.50;;;26.88;42.88
66560;BME280;53413;49.878;8.142;2022-09-09T12:59:37;99478.59;;;26.91;43.19
66560;BME280;53413;49.878;8.142;2022-09-09T13:02:16;99465.75;;;27.25;42.73
66560;BME280;53413;49.878;8.142;2022-09-09T13:04:43;99469.84;;;27.74;42.29
66560;BME280;53413;49.878;8.142;2022-09-09T13:07:11;99468.13;;;28.11;40.88
66560;BME280;53413;49.878;8.142;2022-09-09T13:09:37;99461.31;;;28.45;40.63
66560;BME280;53413;49.878;8.142;2022-09-09T13:12:04;99465.19;;;28.57;39.27
66560;BME280;53413;49.878;8.142;2022-09-09T13:14:35;99468.25;;;28.69;40.03
66560;BME280;53413;49.878;8.142;2022-09-09T13:17:04;99458.06;;;28.50;39.37
66560;BME280;53413;49.878;8.142;2022-09-09T13:19:38;99456.88;;;28.22;39.84
66560;BME280;53413;49.878;8.142;2022-09-09T13:25:00;99459.09;;;27.74;41.60
66560;BME280;53413;49.878;8.142;2022-09-09T13:27:34;99460.00;;;27.51;41.90
66560;BME280;53413;49.878;8.142;2022-09-09T13:30:00;99451.53;;;27.16;42.35
66560;BME280;53413;49.878;8.142;2022-09-09T13:32:26;99448.00;;;26.92;43.23
66560;BME280;53413;49.878;8.142;2022-09-09T13:34:56;99451.78;;;26.83;43.65
66560;BME280;53413;49.878;8.142;2022-09-09T13:39:59;99442.09;;;26.97;43.69
66560;BME280;53413;49.878;8.142;2022-09-09T13:42:28;99450.41;;;27.10;43.07
66560;BME280;53413;49.878;8.142;2022-09-09T13:44:55;99446.63;;;27.19;42.87
66560;BME280;53413;49.878;8.142;2022-09-09T13:47:29;99449.25;;;27.28;42.27
66560;BME280;53413;49.878;8.142;2022-09-09T13:49:55;99450.81;;;27.45;42.79
66560;BME280;53413;49.878;8.142;2022-09-09T13:52:20;99449.63;;;27.78;42.97
66560;BME280;53413;49.878;8.142;2022-09-09T13:54:51;99445.94;;;27.79;41.85
66560;BME280;53413;49.878;8.142;2022-09-09T13:57:22;99454.31;;;27.84;42.01
66560;BME280;53413;49.878;8.142;2022-09-09T13:59:48;99456.59;;;27.87;42.65
66560;BME280;53413;49.878;8.142;2022-09-09T14:02:15;99457.63;;;27.86;43.36
66560;BME280;53413;49.878;8.142;2022-09-09T14:04:41;99458.94;;;27.90;43.19
66560;BME280;53413;49.878;8.142;2022-09-09T14:07:17;99455.59;;;27.88;44.08
66560;BME280;53413;49.878;8.142;2022-09-09T14:09:43;99457.44;;;28.03;43.66
66560;BME280;53413;49.878;8.142;2022-09-09T14:12:11;99454.19;;;28.07;44.85
66560;BME280;53413;49.878;8.142;2022-09-09T14:14:37;99449.47;;;28.09;46.09
66560;BME280;53413;49.878;8.142;2022-09-09T14:17:02;99458.03;;;28.13;45.29
66560;BME280;53413;49.878;8.142;2022-09-09T14:19:28;99453.84;;;28.10;45.25
66560;BME280;53413;49.878;8.142;2022-09-09T14:21:54;99458.47;;;27.87;44.88
66560;BME280;53413;49.878;8.142;2022-09-09T14:24:19;99460.13;;;27.34;45.43
66560;BME280;53413;49.878;8.142;2022-09-09T14:26:45;99461.03;;;27.03;45.33
66560;BME280;53413;49.878;8.142;2022-09-09T14:29:10;99460.44;;;26.93;46.03
66560;BME280;53413;49.878;8.142;2022-09-09T14:31:35;99464.41;;;26.74;46.84
66560;BME280;53413;49.878;8.142;2022-09-09T14:34:01;99467.19;;;26.57;47.26
66560;BME280;53413;49.878;8.142;2022-09-09T14:36:26;99468.94;;;26.42;47.98
66560;BME280;53413;49.878;8.142;2022-09-09T14:38:51;99472.13;;;26.46;47.80
66560;BME280;53413;49.878;8.142;2022-09-09T14:41:18;99466.22;;;26.50;49.38
66560;BME280;53413;49.878;8.142;2022-09-09T14:43:45;99458.53;;;26.70;49.37
66560;BME280;53413;49.878;8.142;2022-09-09T14:46:16;99456.13;;;27.07;48.35
66560;BME280;53413;49.878;8.142;2022-09-09T14:48:42;99453.31;;;27.47;47.46
66560;BME280;53413;49.878;8.142;2022-09-09T14:51:11;99445.94;;;27.64;47.25
66560;BME280;53413;49.878;8.142;2022-09-09T14:53:38;99446.13;;;27.77;47.81
66560;BME280;53413;49.878;8.142;2022-09-09T14:56:09;99437.47;;;27.97;46.23
66560;BME280;53413;49.878;8.142;2022-09-09T14:58:36;99433.84;;;28.05;45.74
66560;BME280;53413;49.878;8.142;2022-09-09T15:01:09;99432.09;;;27.82;45.81
66560;BME280;53413;49.878;8.142;2022-09-09T15:03:36;99421.22;;;27.90;44.47
66560;BME280;53413;49.878;8.142;2022-09-09T15:06:10;99424.28;;;27.87;45.63
66560;BME280;53413;49.878;8.142;2022-09-09T15:08:37;99416.50;;;27.62;45.49
66560;BME280;53413;49.878;8.142;2022-09-09T15:11:04;99417.78;;;27.67;44.38
66560;BME280;53413;49.878;8.142;2022-09-09T15:13:30;99414.66;;;27.63;44.03
66560;BME280;53413;49.878;8.142;2022-09-09T15:16:03;99403.41;;;27.59;44.10
66560;BME280;53413;49.878;8.142;2022-09-09T15:18:29;99412.56;;;27.50;44.11
66560;BME280;53413;49.878;8.142;2022-09-09T15:20:54;99419.13;;;27.71;43.99
66560;BME280;53413;49.878;8.142;2022-09-09T15:23:19;99423.28;;;27.58;43.63
66560;BME280;53413;49.878;8.142;2022-09-09T15:25:55;99437.66;;;27.65;43.51
66560;BME280;53413;49.878;8.142;2022-09-09T15:28:22;99438.88;;;27.78;43.48
66560;BME280;53413;49.878;8.142;2022-09-09T15:30:48;99439.34;;;27.81;43.06
66560;BME280;53413;49.878;8.142;2022-09-09T15:33:14;99446.84;;;27.86;43.87
66560;BME280;53413;49.878;8.142;2022-09-09T15:35:40;99458.03;;;28.13;43.19
66560;BME280;53413;49.878;8.142;2022-09-09T15:38:05;99462.44;;;28.36;43.26
66560;BME280;53413;49.878;8.142;2022-09-09T15:40:31;99466.94;;;28.29;42.89
66560;BME280;53413;49.878;8.142;2022-09-09T15:42:59;99461.06;;;27.95;42.95
66560;BME280;53413;49.878;8.142;2022-09-09T15:45:24;99467.06;;;27.67;42.94
66560;BME280;53413;49.878;8.142;2022-09-09T15:47:50;99471.00;;;27.41;43.20
66560;BME280;53413;49.878;8.142;2022-09-09T15:50:16;99463.38;;;27.07;43.55